sensor_id;sensor_type;location;lat;lon;timestamp;pressure;altitude;pressure_sealevel;temperature;humidity
77517;BME280;68414;53.946;27.634;2023-06-14T00:00:49;99174.390625;;;16.910000;39.952148
77517;BME280;68414;53.946;27.634;2023-06-14T00:01:49;99173.593750;;;16.940001;39.788086
77517;BME280;68414;53.946;27.634;2023-06-14T00:02:49;99166.453125;;;16.930000;39.820312
77517;BME280;68414;53.946;27.634;2023-06-14T00:03:49;99169.234375;;;16.930000;39.797852
77517;BME280;68414;53.946;27.634;2023-06-14T00:04:49;99169.640625;;;16.950001;39.745117
77517;BME280;68414;53.946;27.634;2023-06-14T00:05:49;99164.468750;;;16.930000;39.676758
77517;BME280;68414;53.946;27.634;2023-06-14T00:06:49;99166.046875;;;16.910000;39.774414
77517;BME280;68414;53.946;27.634;2023-06-14T00:07:49;99162.062500;;;16.920000;39.918945
77517;BME280;68414;53.946;27.634;2023-06-14T00:08:49;99166.046875;;;16.910000;39.863281
77517;BME280;68414;53.946;27.634;2023-06-14T00:09:49;99164.062500;;;16.910000;40.084961
77517;BME280;68414;53.946;27.634;2023-06-14T00:10:49;99165.250000;;;16.940001;40.076172
77517;BME280;68414;53.946;27.634;2023-06-14T00:11:49;99165.250000;;;16.940001;39.854492
77517;BME280;68414;53.946;27.634;2023-06-14T00:12:49;99171.625000;;;16.940001;39.955078
77517;BME280;68414;53.946;27.634;2023-06-14T00:13:49;99164.078125;;;16.950001;39.778320
77517;BME280;68414;53.946;27.634;2023-06-14T00:14:49;99156.898438;;;16.940001;39.931641
77517;BME280;68414;53.946;27.634;2023-06-14T00:15:49;99165.656250;;;16.959999;39.933594
77517;BME280;68414;53.946;27.634;2023-06-14T00:16:49;99159.273438;;;16.920000;39.864258
77517;BME280;68414;53.946;27.634;2023-06-14T00:17:49;99160.078125;;;16.920000;39.809570
77517;BME280;68414;53.946;27.634;2023-06-14T00:18:49;99164.828125;;;16.879999;39.960938
77517;BME280;68414;53.946;27.634;2023-06-14T00:19:49;99166.843750;;;16.910000;40.095703
77517;BME280;68414;53.946;27.634;2023-06-14T00:20:49;99163.671875;;;16.930000;40.041992
77517;BME280;68414;53.946;27.634;2023-06-14T00:21:49;99167.625000;;;16.920000;40.152344
77517;BME280;68414;53.946;27.634;2023-06-14T00:22:49;99163.257812;;;16.910000;39.874023
77517;BME280;68414;53.946;27.634;2023-06-14T00:23:49;99164.031250;;;16.879999;40.026367
77517;BME280;68414;53.946;27.634;2023-06-14T00:24:50;99162.851562;;;16.889999;39.983398
77517;BME280;68414;53.946;27.634;2023-06-14T00:25:49;99161.648438;;;16.900000;39.951172
77517;BME280;68414;53.946;27.634;2023-06-14T00:26:49;99164.843750;;;16.920000;39.974609
77517;BME280;68414;53.946;27.634;2023-06-14T00:27:49;99158.093750;;;16.930000;40.120117
77517;BME280;68414;53.946;27.634;2023-06-14T00:28:49;99162.445312;;;16.870001;40.013672
77517;BME280;68414;53.946;27.634;2023-06-14T00:29:49;99160.070312;;;16.889999;40.116211
77517;BME280;68414;53.946;27.634;2023-06-14T00:30:49;99145.750000;;;16.870001;40.025391
77517;BME280;68414;53.946;27.634;2023-06-14T00:31:49;99154.109375;;;16.900000;40.051758
77517;BME280;68414;53.946;27.634;2023-06-14T00:32:49;99154.453125;;;16.820000;40.597656
77517;BME280;68414;53.946;27.634;2023-06-14T00:33:49;99155.257812;;;16.820000;40.553711
77517;BME280;68414;53.946;27.634;2023-06-14T00:34:49;99154.398438;;;16.750000;40.214844
77517;BME280;68414;53.946;27.634;2023-06-14T00:35:49;99157.593750;;;16.770000;40.360352
77517;BME280;68414;53.946;27.634;2023-06-14T00:36:49;99148.890625;;;16.820000;40.342773
77517;BME280;68414;53.946;27.634;2023-06-14T00:37:49;99163.210938;;;16.840000;40.333984
77517;BME280;68414;53.946;27.634;2023-06-14T00:38:49;99158.859375;;;16.860001;40.213867
77517;BME280;68414;53.946;27.634;2023-06-14T00:39:49;99156.875000;;;16.870001;40.158203
77517;BME280;68414;53.946;27.634;2023-06-14T00:40:49;99155.671875;;;16.879999;40.137695
77517;BME280;68414;53.946;27.634;2023-06-14T00:41:50;99152.890625;;;16.879999;40.436523
77517;BME280;68414;53.946;27.634;2023-06-14T00:42:49;99147.312500;;;16.840000;40.100586
77517;BME280;68414;53.946;27.634;2023-06-14T00:43:50;99141.750000;;;16.840000;40.322266
77517;BME280;68414;53.946;27.634;2023-06-14T00:44:49;99139.328125;;;16.790001;40.618164
77517;BME280;68414;53.946;27.634;2023-06-14T00:45:49;99137.703125;;;16.750000;40.546875
77517;BME280;68414;53.946;27.634;2023-06-14T00:46:49;99144.875000;;;16.760000;40.581055
77517;BME280;68414;53.946;27.634;2023-06-14T00:47:50;99138.109375;;;16.770000;40.548828
77517;BME280;68414;53.946;27.634;2023-06-14T00:48:49;99135.328125;;;16.770000;40.582031
77517;BME280;68414;53.946;27.634;2023-06-14T00:49:49;99139.328125;;;16.790001;40.440430
77517;BME280;68414;53.946;27.634;2023-06-14T00:50:51;99136.937500;;;16.780001;40.494141
77517;BME280;68414;53.946;27.634;2023-06-14T00:51:49;99132.953125;;;16.790001;40.373047
77517;BME280;68414;53.946;27.634;2023-06-14T00:52:49;99141.296875;;;16.790001;40.373047
77517;BME280;68414;53.946;27.634;2023-06-14T00:53:50;99136.140625;;;16.770000;40.604492
77517;BME280;68414;53.946;27.634;2023-06-14T00:54:49;99140.890625;;;16.770000;40.592773
77517;BME280;68414;53.946;27.634;2023-06-14T00:55:49;99137.296875;;;16.730000;40.854492
77517;BME280;68414;53.946;27.634;2023-06-14T00:56:49;99140.078125;;;16.730000;41.076172
77517;BME280;68414;53.946;27.634;2023-06-14T00:57:51;99140.406250;;;16.600000;40.534180
77517;BME280;68414;53.946;27.634;2023-06-14T00:58:50;99139.617188;;;16.629999;40.525391
77517;BME280;68414;53.946;27.634;2023-06-14T00:59:49;99128.937500;;;16.690001;40.442383
77517;BME280;68414;53.946;27.634;2023-06-14T01:00:49;99142.046875;;;16.680000;40.507812
77517;BME280;68414;53.946;27.634;2023-06-14T01:01:49;99136.468750;;;16.650000;40.660156
77517;BME280;68414;53.946;27.634;2023-06-14T01:02:49;99134.500000;;;16.690001;40.585938
77517;BME280;68414;53.946;27.634;2023-06-14T01:03:49;99134.093750;;;16.670000;40.595703
77517;BME280;68414;53.946;27.634;2023-06-14T01:04:49;99136.890625;;;16.709999;40.553711
77517;BME280;68414;53.946;27.634;2023-06-14T01:05:50;99135.726562;;;16.750000;40.757812
77517;BME280;68414;53.946;27.634;2023-06-14T01:06:54;99134.515625;;;16.730000;40.599609
77517;BME280;68414;53.946;27.634;2023-06-14T01:09:37;99134.156250;;;16.780001;40.450195
77517;BME280;68414;53.946;27.634;2023-06-14T01:13:50;99132.085938;;;16.670000;40.772461
77517;BME280;68414;53.946;27.634;2023-06-14T01:14:49;99137.281250;;;16.690001;40.552734
77517;BME280;68414;53.946;27.634;2023-06-14T01:15:49;99132.937500;;;16.719999;40.422852
77517;BME280;68414;53.946;27.634;2023-06-14T01:16:49;99130.156250;;;16.719999;40.489258
77517;BME280;68414;53.946;27.634;2023-06-14T01:17:50;99129.750000;;;16.730000;40.467773
77517;BME280;68414;53.946;27.634;2023-06-14T01:18:50;99135.312500;;;16.730000;40.445312
77517;BME280;68414;53.946;27.634;2023-06-14T01:19:50;99133.703125;;;16.719999;40.533203
77517;BME280;68414;53.946;27.634;2023-06-14T01:20:49;99139.273438;;;16.719999;40.721680
77517;BME280;68414;53.946;27.634;2023-06-14T01:21:49;99144.062500;;;16.719999;40.677734
77517;BME280;68414;53.946;27.634;2023-06-14T01:23:50;99136.078125;;;16.700001;40.564453
77517;BME280;68414;53.946;27.634;2023-06-14T01:24:49;99141.234375;;;16.680000;40.639648
77517;BME280;68414;53.946;27.634;2023-06-14T01:25:49;99143.257812;;;16.709999;40.643555
77517;BME280;68414;53.946;27.634;2023-06-14T01:26:49;99144.062500;;;16.719999;40.688477
77517;BME280;68414;53.946;27.634;2023-06-14T01:27:49;99142.054688;;;16.719999;40.522461
77517;BME280;68414;53.946;27.634;2023-06-14T01:28:49;99140.078125;;;16.730000;40.721680
77517;BME280;68414;53.946;27.634;2023-06-14T01:29:53;99142.859375;;;16.730000;40.644531
77517;BME280;68414;53.946;27.634;2023-06-14T01:30:50;99148.781250;;;16.670000;40.960938
77517;BME280;68414;53.946;27.634;2023-06-14T01:31:49;99142.437500;;;16.670000;40.994141
77517;BME280;68414;53.946;27.634;2023-06-14T01:32:49;99136.070312;;;16.660000;40.872070
77517;BME280;68414;53.946;27.634;2023-06-14T01:33:49;99141.625000;;;16.629999;40.791016
77517;BME280;68414;53.946;27.634;2023-06-14T01:34:49;99146.796875;;;16.639999;40.980469
77517;BME280;68414;53.946;27.634;2023-06-14T01:35:50;99142.031250;;;16.650000;40.859375
77517;BME280;68414;53.946;27.634;2023-06-14T01:36:49;99140.875000;;;16.700001;41.007812
77517;BME280;68414;53.946;27.634;2023-06-14T01:37:49;99148.781250;;;16.670000;40.905273
77517;BME280;68414;53.946;27.634;2023-06-14T01:38:49;99139.671875;;;16.709999;40.941406
77517;BME280;68414;53.946;27.634;2023-06-14T01:39:49;99151.609375;;;16.709999;41.197266
77517;BME280;68414;53.946;27.634;2023-06-14T01:40:49;99148.828125;;;16.709999;41.108398
77517;BME280;68414;53.946;27.634;2023-06-14T01:41:49;99147.609375;;;16.680000;41.260742
77517;BME280;68414;53.946;27.634;2023-06-14T01:42:49;99150.390625;;;16.680000;41.106445
77517;BME280;68414;53.946;27.634;2023-06-14T01:43:49;99151.960938;;;16.660000;41.092773
77517;BME280;68414;53.946;27.634;2023-06-14T01:44:49;99154.781250;;;16.700001;41.085938
77517;BME280;68414;53.946;27.634;2023-06-14T01:45:49;99150.406250;;;16.719999;41.231445
77517;BME280;68414;53.946;27.634;2023-06-14T01:46:49;99144.007812;;;16.639999;41.113281
77517;BME280;68414;53.946;27.634;2023-06-14T01:47:49;99151.156250;;;16.650000;41.501953
77517;BME280;68414;53.946;27.634;2023-06-14T01:48:49;99146.390625;;;16.660000;41.192383
77517;BME280;68414;53.946;27.634;2023-06-14T01:49:49;99146.437500;;;16.700001;41.196289
77517;BME280;68414;53.946;27.634;2023-06-14T01:50:49;99147.218750;;;16.700001;41.041016
77517;BME280;68414;53.946;27.634;2023-06-14T01:51:49;99144.062500;;;16.719999;41.208984
77517;BME280;68414;53.946;27.634;2023-06-14T01:52:49;99139.265625;;;16.680000;41.361328
77517;BME280;68414;53.946;27.634;2023-06-14T01:53:49;99140.031250;;;16.650000;41.302734
77517;BME280;68414;53.946;27.634;2023-06-14T01:54:50;99142.812500;;;16.650000;41.325195
77517;BME280;68414;53.946;27.634;2023-06-14T01:55:49;99141.640625;;;16.660000;41.448242
77517;BME280;68414;53.946;27.634;2023-06-14T01:56:49;99141.640625;;;16.700001;41.407227
77517;BME280;68414;53.946;27.634;2023-06-14T01:57:49;99146.843750;;;16.719999;41.287109
77517;BME280;68414;53.946;27.634;2023-06-14T01:58:49;99140.421875;;;16.639999;41.157227
77517;BME280;68414;53.946;27.634;2023-06-14T01:59:49;99145.593750;;;16.650000;41.258789
77517;BME280;68414;53.946;27.634;2023-06-14T02:00:49;99147.609375;;;16.680000;41.127930
77517;BME280;68414;53.946;27.634;2023-06-14T02:01:49;99146.390625;;;16.660000;41.092773
77517;BME280;68414;53.946;27.634;2023-06-14T02:02:49;99153.125000;;;16.610001;41.155273
77517;BME280;68414;53.946;27.634;2023-06-14T02:03:49;99154.281250;;;16.570000;41.406250
77517;BME280;68414;53.946;27.634;2023-06-14T02:04:49;99150.328125;;;16.580000;41.306641
77517;BME280;68414;53.946;27.634;2023-06-14T02:05:49;99151.539062;;;16.600000;41.365234
77517;BME280;68414;53.946;27.634;2023-06-14T02:06:49;99157.515625;;;16.620001;41.654297
77517;BME280;68414;53.946;27.634;2023-06-14T02:07:49;99151.945312;;;16.620001;41.599609
77517;BME280;68414;53.946;27.634;2023-06-14T02:08:49;99149.578125;;;16.639999;41.500977
77517;BME280;68414;53.946;27.634;2023-06-14T02:09:49;99156.718750;;;16.650000;41.801758
77517;BME280;68414;53.946;27.634;2023-06-14T02:10:49;99148.765625;;;16.639999;41.400391
77517;BME280;68414;53.946;27.634;2023-06-14T02:11:49;99154.328125;;;16.639999;41.434570
77517;BME280;68414;53.946;27.634;2023-06-14T02:12:49;99154.671875;;;16.549999;41.028320
77517;BME280;68414;53.946;27.634;2023-06-14T02:13:49;99155.492188;;;16.590000;41.331055
77517;BME280;68414;53.946;27.634;2023-06-14T02:14:49;99154.328125;;;16.639999;41.212891
77517;BME280;68414;53.946;27.634;2023-06-14T02:15:49;99149.914062;;;16.559999;41.482422
77517;BME280;68414;53.946;27.634;2023-06-14T02:16:49;99151.125000;;;16.580000;41.617188
77517;BME280;68414;53.946;27.634;2023-06-14T02:17:49;99150.328125;;;16.580000;41.428711
77517;BME280;68414;53.946;27.634;2023-06-14T02:18:49;99151.945312;;;16.620001;41.421875
77517;BME280;68414;53.946;27.634;2023-06-14T02:19:49;99155.531250;;;16.629999;41.577148
77517;BME280;68414;53.946;27.634;2023-06-14T02:20:49;99149.578125;;;16.639999;41.888672
77517;BME280;68414;53.946;27.634;2023-06-14T02:21:49;99151.945312;;;16.620001;41.599609
77517;BME280;68414;53.946;27.634;2023-06-14T02:22:49;99149.921875;;;16.590000;41.563477
77517;BME280;68414;53.946;27.634;2023-06-14T02:23:49;99147.140625;;;16.590000;41.386719
77517;BME280;68414;53.946;27.634;2023-06-14T02:24:49;99153.164062;;;16.650000;41.524414
77517;BME280;68414;53.946;27.634;2023-06-14T02:25:49;99153.570312;;;16.670000;42.223633
77517;BME280;68414;53.946;27.634;2023-06-14T02:26:49;99153.515625;;;16.600000;41.530273
77517;BME280;68414;53.946;27.634;2023-06-14T02:27:49;99153.921875;;;16.620001;41.864258
77517;BME280;68414;53.946;27.634;2023-06-14T02:28:49;99155.906250;;;16.610001;41.986328
77517;BME280;68414;53.946;27.634;2023-06-14T02:29:49;99158.312500;;;16.629999;41.920898
77517;BME280;68414;53.946;27.634;2023-06-14T02:30:49;99157.921875;;;16.639999;41.722656
77517;BME280;68414;53.946;27.634;2023-06-14T02:31:49;99156.718750;;;16.650000;41.513672
77517;BME280;68414;53.946;27.634;2023-06-14T02:32:49;99163.015625;;;16.549999;42.158203
77517;BME280;68414;53.946;27.634;2023-06-14T02:33:49;99150.718750;;;16.559999;42.025391
77517;BME280;68414;53.946;27.634;2023-06-14T02:34:49;99151.539062;;;16.600000;42.140625
77517;BME280;68414;53.946;27.634;2023-06-14T02:35:49;99157.117188;;;16.639999;42.663086
77517;BME280;68414;53.946;27.634;2023-06-14T02:36:49;99161.921875;;;16.670000;42.334961
77517;BME280;68414;53.946;27.634;2023-06-14T02:37:49;99159.890625;;;16.600000;41.840820
77517;BME280;68414;53.946;27.634;2023-06-14T02:38:49;99156.359375;;;16.670000;41.847656
77517;BME280;68414;53.946;27.634;2023-06-14T02:39:49;99155.156250;;;16.680000;41.880859
77517;BME280;68414;53.946;27.634;2023-06-14T02:40:49;99157.578125;;;16.730000;42.185547
77517;BME280;68414;53.946;27.634;2023-06-14T02:41:50;99162.750000;;;16.750000;41.854492
77517;BME280;68414;53.946;27.634;2023-06-14T02:42:49;99166.734375;;;16.740000;42.075195
77517;BME280;68414;53.946;27.634;2023-06-14T02:43:49;99162.750000;;;16.750000;42.032227
77517;BME280;68414;53.946;27.634;2023-06-14T02:44:49;99165.578125;;;16.780001;41.935547
77517;BME280;68414;53.946;27.634;2023-06-14T02:45:49;99164.781250;;;16.809999;42.292969
77517;BME280;68414;53.946;27.634;2023-06-14T02:46:49;99167.968750;;;16.830000;42.106445
77517;BME280;68414;53.946;27.634;2023-06-14T02:47:49;99167.609375;;;16.850000;41.863281
77517;BME280;68414;53.946;27.634;2023-06-14T02:48:49;99171.570312;;;16.870001;42.065430
77517;BME280;68414;53.946;27.634;2023-06-14T02:49:49;99165.640625;;;16.920000;42.281250
77517;BME280;68414;53.946;27.634;2023-06-14T02:50:49;99161.648438;;;16.900000;41.735352
77517;BME280;68414;53.946;27.634;2023-06-14T02:51:49;99174.000000;;;16.959999;41.619141
77517;BME280;68414;53.946;27.634;2023-06-14T02:52:49;99164.890625;;;16.990000;41.534180
77517;BME280;68414;53.946;27.634;2023-06-14T02:53:49;99157.296875;;;16.920000;41.982422
77517;BME280;68414;53.946;27.634;2023-06-14T02:54:49;99166.453125;;;16.930000;42.380859
77517;BME280;68414;53.946;27.634;2023-06-14T02:55:49;99166.867188;;;16.980000;42.652344
77517;BME280;68414;53.946;27.634;2023-06-14T02:56:49;99166.812500;;;16.879999;41.844727
77517;BME280;68414;53.946;27.634;2023-06-14T02:57:49;99166.453125;;;16.930000;41.782227
77517;BME280;68414;53.946;27.634;2023-06-14T02:58:49;99163.257812;;;16.910000;41.802734
77517;BME280;68414;53.946;27.634;2023-06-14T02:59:49;99157.687500;;;16.910000;41.659180
77517;BME280;68414;53.946;27.634;2023-06-14T03:00:49;99170.812500;;;16.940001;41.761719
77517;BME280;68414;53.946;27.634;2023-06-14T03:01:49;99169.640625;;;16.950001;41.996094
77517;BME280;68414;53.946;27.634;2023-06-14T03:02:49;99166.812500;;;16.879999;41.867188
77517;BME280;68414;53.946;27.634;2023-06-14T03:03:49;99162.468750;;;16.940001;42.226562
77517;BME280;68414;53.946;27.634;2023-06-14T03:04:49;99165.656250;;;16.959999;42.029297
77517;BME280;68414;53.946;27.634;2023-06-14T03:05:49;99167.265625;;;16.969999;41.809570
77517;BME280;68414;53.946;27.634;2023-06-14T03:06:49;99162.468750;;;16.940001;41.683594
77517;BME280;68414;53.946;27.634;2023-06-14T03:07:49;99170.859375;;;16.969999;41.698242
77517;BME280;68414;53.946;27.634;2023-06-14T03:08:49;99174.000000;;;16.959999;41.762695
77517;BME280;68414;53.946;27.634;2023-06-14T03:09:49;99167.609375;;;16.850000;41.852539
77517;BME280;68414;53.946;27.634;2023-06-14T03:10:49;99165.632812;;;16.889999;41.701172
77517;BME280;68414;53.946;27.634;2023-06-14T03:11:49;99170.000000;;;16.900000;41.913086
77517;BME280;68414;53.946;27.634;2023-06-14T03:12:49;99159.679688;;;16.940001;41.849609
77517;BME280;68414;53.946;27.634;2023-06-14T03:13:49;99169.195312;;;16.889999;41.690430
77517;BME280;68414;53.946;27.634;2023-06-14T03:14:49;99166.453125;;;16.930000;41.771484
77517;BME280;68414;53.946;27.634;2023-06-14T03:15:49;99168.828125;;;16.910000;41.781250
77517;BME280;68414;53.946;27.634;2023-06-14T03:16:49;99169.593750;;;16.879999;42.066406
77517;BME280;68414;53.946;27.634;2023-06-14T03:17:49;99173.187500;;;16.920000;41.958984
77517;BME280;68414;53.946;27.634;2023-06-14T03:19:49;99171.203125;;;16.889999;41.868164
77517;BME280;68414;53.946;27.634;2023-06-14T03:20:49;99170.039062;;;16.930000;41.960938
77517;BME280;68414;53.946;27.634;2023-06-14T03:21:49;99170.804688;;;16.900000;41.847656
77517;BME280;68414;53.946;27.634;2023-06-14T03:22:49;99174.406250;;;16.940001;41.972656
77517;BME280;68414;53.946;27.634;2023-06-14T03:23:49;99172.070312;;;17.000000;42.133789
77517;BME280;68414;53.946;27.634;2023-06-14T03:24:49;99171.312500;;;17.059999;42.183594
77517;BME280;68414;53.946;27.634;2023-06-14T03:25:49;99172.125000;;;17.100000;42.276367
77517;BME280;68414;53.946;27.634;2023-06-14T03:26:49;99176.031250;;;17.020000;41.537109
77517;BME280;68414;53.946;27.634;2023-06-14T03:27:49;99174.460938;;;17.049999;41.671875
77517;BME280;68414;53.946;27.634;2023-06-14T03:28:49;99177.640625;;;17.030001;41.603516
77517;BME280;68414;53.946;27.634;2023-06-14T03:29:49;99186.406250;;;17.049999;41.994141
77517;BME280;68414;53.946;27.634;2023-06-14T03:30:49;99189.179688;;;17.020000;41.747070
77517;BME280;68414;53.946;27.634;2023-06-14T03:32:49;99178.859375;;;17.090000;41.610352
77517;BME280;68414;53.946;27.634;2023-06-14T03:33:49;99170.093750;;;17.040001;41.670898
77517;BME280;68414;53.946;27.634;2023-06-14T03:34:49;99181.250000;;;17.110001;41.678711
77517;BME280;68414;53.946;27.634;2023-06-14T03:35:49;99181.648438;;;17.090000;41.631836
77517;BME280;68414;53.946;27.634;2023-06-14T03:36:49;99176.484375;;;17.110001;42.254883
77517;BME280;68414;53.946;27.634;2023-06-14T03:37:49;99177.703125;;;17.170000;42.337891
77517;BME280;68414;53.946;27.634;2023-06-14T03:38:49;99176.125000;;;17.160000;41.950195
77517;BME280;68414;53.946;27.634;2023-06-14T03:39:49;99174.953125;;;17.209999;42.253906
77517;BME280;68414;53.946;27.634;2023-06-14T03:40:49;99177.750000;;;17.240000;41.379883
77517;BME280;68414;53.946;27.634;2023-06-14T03:41:49;99175.765625;;;17.250000;41.846680
77517;BME280;68414;53.946;27.634;2023-06-14T03:42:49;99174.593750;;;17.290001;41.541016
77517;BME280;68414;53.946;27.634;2023-06-14T03:43:49;99171.406250;;;17.309999;41.852539
77517;BME280;68414;53.946;27.634;2023-06-14T03:44:49;99171.046875;;;17.360001;41.634766
77517;BME280;68414;53.946;27.634;2023-06-14T03:45:49;99168.257812;;;17.360001;41.423828
77517;BME280;68414;53.946;27.634;2023-06-14T03:46:49;99179.437500;;;17.430000;41.353516
77517;BME280;68414;53.946;27.634;2023-06-14T03:47:49;99175.406250;;;17.370001;41.303711
77517;BME280;68414;53.946;27.634;2023-06-14T03:48:49;99174.640625;;;17.360001;41.447266
77517;BME280;68414;53.946;27.634;2023-06-14T03:49:49;99170.640625;;;17.340000;41.533203
77517;BME280;68414;53.946;27.634;2023-06-14T03:50:49;99171.453125;;;17.410000;41.385742
77517;BME280;68414;53.946;27.634;2023-06-14T03:51:49;99175.812500;;;17.389999;41.527344
77517;BME280;68414;53.946;27.634;2023-06-14T03:52:49;99170.640625;;;17.370001;41.347656
77517;BME280;68414;53.946;27.634;2023-06-14T03:53:49;99171.453125;;;17.410000;41.108398
77517;BME280;68414;53.946;27.634;2023-06-14T03:54:49;99177.023438;;;17.410000;41.640625
77517;BME280;68414;53.946;27.634;2023-06-14T03:55:49;99176.250000;;;17.410000;41.007812
77517;BME280;68414;53.946;27.634;2023-06-14T03:56:49;99177.453125;;;17.469999;41.124023
77517;BME280;68414;53.946;27.634;2023-06-14T03:57:49;99176.250000;;;17.440001;41.099609
77517;BME280;68414;53.946;27.634;2023-06-14T03:58:50;99181.421875;;;17.459999;40.956055
77517;BME280;68414;53.946;27.634;2023-06-14T03:59:49;99180.203125;;;17.400000;40.839844
77517;BME280;68414;53.946;27.634;2023-06-14T04:00:49;99176.250000;;;17.440001;40.822266
77517;BME280;68414;53.946;27.634;2023-06-14T04:01:49;99179.468750;;;17.500000;40.905273
77517;BME280;68414;53.946;27.634;2023-06-14T04:02:49;99174.671875;;;17.469999;40.913086
77517;BME280;68414;53.946;27.634;2023-06-14T04:03:49;99182.218750;;;17.430000;40.853516
77517;BME280;68414;53.946;27.634;2023-06-14T04:04:49;99177.828125;;;17.420000;40.852539
77517;BME280;68414;53.946;27.634;2023-06-14T04:05:49;99175.406250;;;17.370001;41.082031
77517;BME280;68414;53.946;27.634;2023-06-14T04:06:49;99174.640625;;;17.400000;40.851562
77517;BME280;68414;53.946;27.634;2023-06-14T04:07:49;99182.992188;;;17.360001;40.947266
77517;BME280;68414;53.946;27.634;2023-06-14T04:08:49;99173.835938;;;17.389999;41.117188
77517;BME280;68414;53.946;27.634;2023-06-14T04:09:49;99171.851562;;;17.360001;40.681641
77517;BME280;68414;53.946;27.634;2023-06-14T04:10:49;99169.062500;;;17.400000;40.773438
77517;BME280;68414;53.946;27.634;2023-06-14T04:11:49;99168.265625;;;17.389999;40.750977
77517;BME280;68414;53.946;27.634;2023-06-14T04:12:49;99175.445312;;;17.440001;40.899414
77517;BME280;68414;53.946;27.634;2023-06-14T04:13:49;99176.687500;;;17.500000;40.994141
77517;BME280;68414;53.946;27.634;2023-06-14T04:14:49;99177.093750;;;17.520000;41.228516
77517;BME280;68414;53.946;27.634;2023-06-14T04:15:49;99179.507812;;;17.540001;41.030273
77517;BME280;68414;53.946;27.634;2023-06-14T04:16:50;99179.468750;;;17.500000;40.117188
77517;BME280;68414;53.946;27.634;2023-06-14T04:17:49;99181.890625;;;17.549999;40.565430
77517;BME280;68414;53.946;27.634;2023-06-14T04:18:49;99173.937500;;;17.540001;40.475586
77517;BME280;68414;53.946;27.634;2023-06-14T04:19:49;99177.093750;;;17.520000;41.106445
77517;BME280;68414;53.946;27.634;2023-06-14T04:20:49;99172.726562;;;17.549999;40.908203
77517;BME280;68414;53.946;27.634;2023-06-14T04:21:49;99175.914062;;;17.570000;40.710938
77517;BME280;68414;53.946;27.634;2023-06-14T04:22:49;99181.117188;;;17.580000;40.668945
77517;BME280;68414;53.946;27.634;2023-06-14T04:23:49;99179.906250;;;17.590000;40.601562
77517;BME280;68414;53.946;27.634;2023-06-14T04:24:49;99179.539062;;;17.639999;40.895508
77517;BME280;68414;53.946;27.634;2023-06-14T04:25:49;99179.562500;;;17.709999;41.012695
77517;BME280;68414;53.946;27.634;2023-06-14T04:26:50;99168.421875;;;17.709999;40.712891
77517;BME280;68414;53.946;27.634;2023-06-14T04:27:49;99171.984375;;;17.680000;40.355469
77517;BME280;68414;53.946;27.634;2023-06-14T04:28:49;99174.367188;;;17.629999;39.950195
77517;BME280;68414;53.946;27.634;2023-06-14T04:29:49;99175.546875;;;17.620001;40.404297
77517;BME280;68414;53.946;27.634;2023-06-14T04:30:49;99182.695312;;;17.590000;40.313477
77517;BME280;68414;53.946;27.634;2023-06-14T04:31:49;99183.093750;;;17.610001;40.449219
77517;BME280;68414;53.946;27.634;2023-06-14T04:32:49;99179.507812;;;17.570000;40.511719
77517;BME280;68414;53.946;27.634;2023-06-14T04:33:49;99181.890625;;;17.520000;40.794922
77517;BME280;68414;53.946;27.634;2023-06-14T04:35:49;99181.078125;;;17.510000;41.083008
77517;BME280;68414;53.946;27.634;2023-06-14T04:36:49;99179.875000;;;17.520000;41.029297
77517;BME280;68414;53.946;27.634;2023-06-14T04:37:49;99179.875000;;;17.520000;40.951172
77517;BME280;68414;53.946;27.634;2023-06-14T04:38:49;99184.281250;;;17.570000;40.944336
77517;BME280;68414;53.946;27.634;2023-06-14T04:39:49;99182.265625;;;17.500000;40.783203